Time;durP1;ratioP1;P1;durP2;ratioP2;P2;SDS_P1;SDS_P2;PMS_P1;PMS_P2;Temp;Humidity;BMP_temperature;BMP_pressure;BME280_temperature;BME280_humidity;BME280_pressure;Samples;Min_cycle;Max_cycle;Signal;HPM_P1;HPM_P2
2023/06/17 00:01:33;;;;;;;;;7.00;6.00;;;;;;;;4957246;28;46096;-86
2023/06/17 00:03:58;;;;;;;;;11.00;7.00;;;;;;;;4958931;28;45346;-87
2023/06/17 00:06:23;;;;;;;;;12.33;8.00;;;;;;;;4958879;28;45362;-87
2023/06/17 00:08:50;;;;;;;;;8.00;8.00;;;;;;;;4958729;28;46300;-86
2023/06/17 00:11:15;;;;;;;;;10.75;7.50;;;;;;;;4958448;28;45323;-86
2023/06/17 00:13:41;;;;;;;;;8.00;6.25;;;;;;;;4957628;28;45318;-86
2023/06/17 00:16:06;;;;;;;;;12.67;9.00;;;;;;;;4958558;28;45450;-86
2023/06/17 00:18:32;;;;;;;;;9.67;7.00;;;;;;;;4958555;28;46459;-87
2023/06/17 00:20:58;;;;;;;;;8.75;8.75;;;;;;;;4958742;28;45659;-87
2023/06/17 00:23:23;;;;;;;;;9.25;8.00;;;;;;;;4958579;28;45355;-88
2023/06/17 00:25:49;;;;;;;;;14.25;8.50;;;;;;;;4958607;28;45342;-87
2023/06/17 00:28:14;;;;;;;;;11.50;10.00;;;;;;;;4957243;28;47919;-87
2023/06/17 00:30:39;;;;;;;;;7.00;6.25;;;;;;;;4956769;28;45444;-87
2023/06/17 00:33:05;;;;;;;;;11.67;8.00;;;;;;;;4958714;28;45394;-86
2023/06/17 00:35:30;;;;;;;;;11.25;8.75;;;;;;;;4958173;28;45494;-87
2023/06/17 00:37:55;;;;;;;;;11.33;8.33;;;;;;;;4956919;28;46509;-87
2023/06/17 00:40:20;;;;;;;;;15.00;9.50;;;;;;;;4956933;28;45909;-87
2023/06/17 00:42:46;;;;;;;;;12.00;9.00;;;;;;;;4957011;28;45376;-87
2023/06/17 00:45:11;;;;;;;;;13.00;8.00;;;;;;;;4957945;28;45375;-87
2023/06/17 00:47:37;;;;;;;;;10.00;8.00;;;;;;;;4958146;28;46482;-87
2023/06/17 00:50:03;;;;;;;;;9.50;8.00;;;;;;;;4958114;28;45361;-87
2023/06/17 00:52:28;;;;;;;;;8.25;7.50;;;;;;;;4958213;28;45438;-87
2023/06/17 00:54:54;;;;;;;;;11.00;5.33;;;;;;;;4957824;28;45453;-87
2023/06/17 00:57:19;;;;;;;;;7.00;6.75;;;;;;;;4957964;28;46586;-87
2023/06/17 00:59:45;;;;;;;;;7.00;7.00;;;;;;;;4957469;28;45276;-86
2023/06/17 01:02:11;;;;;;;;;11.50;9.00;;;;;;;;4958053;28;45300;-87
2023/06/17 01:04:43;;;;;;;;;11.50;9.75;;;;;;;;4958119;28;45535;-87
2023/06/17 01:07:16;;;;;;;;;7.25;7.25;;;;;;;;4957696;28;45444;-88
2023/06/17 01:09:43;;;;;;;;;8.75;8.00;;;;;;;;4957856;28;45956;-88
2023/06/17 01:12:08;;;;;;;;;10.25;9.00;;;;;;;;4957523;28;45427;-87
2023/06/17 01:14:34;;;;;;;;;10.00;8.00;;;;;;;;4956320;28;45448;-87
2023/06/17 01:17:01;;;;;;;;;8.50;7.00;;;;;;;;4957698;28;46441;-87
2023/06/17 01:19:27;;;;;;;;;11.00;9.00;;;;;;;;4957589;28;45595;-86
2023/06/17 01:21:53;;;;;;;;;9.50;8.00;;;;;;;;4956526;28;45262;-86
2023/06/17 01:24:29;;;;;;;;;8.75;7.50;;;;;;;;4957202;28;45512;-86
2023/06/17 01:26:56;;;;;;;;;8.00;8.00;;;;;;;;4957134;28;46560;-86
2023/06/17 01:29:23;;;;;;;;;11.75;7.00;;;;;;;;4957603;28;45458;-86
2023/06/17 01:31:49;;;;;;;;;10.25;7.50;;;;;;;;4957528;28;45248;-86
2023/06/17 01:34:15;;;;;;;;;11.50;9.00;;;;;;;;4957587;28;45610;-86
2023/06/17 01:36:42;;;;;;;;;10.00;8.25;;;;;;;;4957368;28;47147;-86
2023/06/17 01:39:09;;;;;;;;;9.25;9.25;;;;;;;;4957415;28;45320;-86
2023/06/17 01:41:39;;;;;;;;;9.50;8.75;;;;;;;;4957264;28;45445;-86
2023/06/17 01:44:04;;;;;;;;;11.00;8.00;;;;;;;;4957360;28;45434;-86
2023/06/17 01:46:30;;;;;;;;;11.25;8.50;;;;;;;;4955883;28;48069;-87
2023/06/17 01:48:55;;;;;;;;;9.25;8.00;;;;;;;;4957377;28;45240;-87
2023/06/17 01:51:21;;;;;;;;;16.75;10.25;;;;;;;;4956255;28;45337;-86
2023/06/17 01:53:46;;;;;;;;;12.00;9.00;;;;;;;;4957421;28;45343;-87
2023/06/17 01:56:11;;;;;;;;;10.75;10.00;;;;;;;;4956550;28;45431;-86
2023/06/17 01:58:37;;;;;;;;;16.00;11.00;;;;;;;;4957283;28;45410;-87
2023/06/17 02:01:03;;;;;;;;;17.00;12.00;;;;;;;;4957315;28;45355;-87
2023/06/17 02:03:28;;;;;;;;;15.00;12.33;;;;;;;;4957151;28;45522;-87
2023/06/17 02:05:53;;;;;;;;;18.00;13.00;;;;;;;;4956872;28;45603;-87
2023/06/17 02:08:19;;;;;;;;;12.67;11.33;;;;;;;;4957090;28;45334;-87
2023/06/17 02:10:44;;;;;;;;;15.25;12.75;;;;;;;;4956638;28;45494;-87
2023/06/17 02:13:10;;;;;;;;;15.50;11.75;;;;;;;;4957023;28;45458;-87
2023/06/17 02:15:35;;;;;;;;;18.75;12.75;;;;;;;;4956700;28;46417;-86
2023/06/17 02:18:00;;;;;;;;;13.33;11.33;;;;;;;;4956893;28;45546;-85
2023/06/17 02:20:26;;;;;;;;;18.00;9.75;;;;;;;;4956941;28;45437;-85
2023/06/17 02:22:51;;;;;;;;;15.75;11.25;;;;;;;;4956847;28;45361;-86
2023/06/17 02:25:17;;;;;;;;;17.33;12.00;;;;;;;;4956253;28;46329;-86
2023/06/17 02:27:42;;;;;;;;;16.75;13.50;;;;;;;;4956826;28;45473;-86
2023/06/17 02:30:09;;;;;;;;;11.75;9.25;;;;;;;;4956988;28;45406;-86
2023/06/17 02:32:34;;;;;;;;;16.00;14.00;;;;;;;;4956898;28;45399;-85
2023/06/17 02:34:59;;;;;;;;;13.33;13.00;;;;;;;;4956554;28;46086;-85
2023/06/17 02:37:25;;;;;;;;;17.25;12.75;;;;;;;;4959903;28;45466;-86
2023/06/17 02:39:51;;;;;;;;;12.25;11.25;;;;;;;;4959923;28;45377;-86
2023/06/17 02:42:16;;;;;;;;;13.67;12.67;;;;;;;;4960216;28;45497;-85
2023/06/17 02:44:41;;;;;;;;;11.67;11.33;;;;;;;;4959997;28;46404;-86
2023/06/17 02:47:06;;;;;;;;;14.00;13.00;;;;;;;;4959851;28;45347;-88
2023/06/17 02:49:32;;;;;;;;;14.50;12.25;;;;;;;;4960067;28;45205;-86
2023/06/17 02:51:57;;;;;;;;;12.00;12.00;;;;;;;;4960169;28;45352;-87
2023/06/17 02:54:22;;;;;;;;;15.00;10.33;;;;;;;;4958034;28;48751;-87
2023/06/17 02:56:47;;;;;;;;;17.33;11.00;;;;;;;;4958624;28;45568;-87
2023/06/17 02:59:14;;;;;;;;;12.00;11.00;;;;;;;;4958503;28;45257;-87
2023/06/17 03:01:42;;;;;;;;;12.00;12.00;;;;;;;;4959987;28;45224;-87
2023/06/17 03:04:08;;;;;;;;;11.00;9.00;;;;;;;;4959750;28;47083;-87
2023/06/17 03:06:34;;;;;;;;;7.25;4.00;;;;;;;;4959761;28;45350;-88
2023/06/17 03:09:00;;;;;;;;;12.00;10.75;;;;;;;;4959609;28;45383;-87
2023/06/17 03:11:25;;;;;;;;;12.00;8.50;;;;;;;;4959801;28;45304;-87
2023/06/17 03:13:50;;;;;;;;;10.00;10.00;;;;;;;;4959258;28;45452;-87
2023/06/17 03:16:16;;;;;;;;;10.67;10.67;;;;;;;;4959815;28;45426;-87
2023/06/17 03:18:42;;;;;;;;;10.25;9.25;;;;;;;;4959527;28;45464;-86
2023/06/17 03:21:07;;;;;;;;;10.33;9.00;;;;;;;;4959570;28;45549;-86
2023/06/17 03:23:32;;;;;;;;;15.00;11.67;;;;;;;;4958723;28;46524;-86
2023/06/17 03:25:57;;;;;;;;;11.33;9.00;;;;;;;;4958286;28;45537;-86
2023/06/17 03:28:22;;;;;;;;;11.00;9.67;;;;;;;;4959591;28;45393;-86
2023/06/17 03:30:48;;;;;;;;;12.67;11.00;;;;;;;;4958134;28;45597;-86
2023/06/17 03:33:13;;;;;;;;;12.33;10.00;;;;;;;;4959192;28;47120;-86
2023/06/17 03:35:38;;;;;;;;;12.00;8.25;;;;;;;;4957961;28;45416;-86
2023/06/17 03:38:04;;;;;;;;;11.75;10.00;;;;;;;;4958970;28;45769;-86
2023/06/17 03:40:29;;;;;;;;;12.33;11.67;;;;;;;;4959374;28;45423;-86
2023/06/17 03:42:54;;;;;;;;;14.33;10.33;;;;;;;;4957886;28;48110;-85
2023/06/17 03:45:20;;;;;;;;;11.75;9.25;;;;;;;;4959202;28;45601;-86
2023/06/17 03:47:46;;;;;;;;;14.25;11.50;;;;;;;;4958907;28;45334;-86
2023/06/17 03:50:11;;;;;;;;;12.00;10.00;;;;;;;;4959291;28;45607;-86
2023/06/17 03:52:36;;;;;;;;;10.50;9.00;;;;;;;;4958535;28;45477;-86
2023/06/17 03:55:02;;;;;;;;;14.25;9.75;;;;;;;;4958571;28;45543;-86
2023/06/17 03:57:28;;;;;;;;;8.00;8.00;;;;;;;;4959150;28;45449;-87
2023/06/17 03:59:53;;;;;;;;;15.33;10.33;;;;;;;;4958703;28;45433;-87
2023/06/17 04:02:18;;;;;;;;;13.00;8.00;;;;;;;;4958895;28;45472;-87
2023/06/17 04:04:43;;;;;;;;;13.00;9.00;;;;;;;;4958688;28;45407;-87
2023/06/17 04:07:09;;;;;;;;;12.67;8.33;;;;;;;;4958593;28;45504;-87
2023/06/17 04:09:34;;;;;;;;;11.50;9.00;;;;;;;;4959066;28;45419;-86
2023/06/17 04:12:00;;;;;;;;;12.00;10.00;;;;;;;;4958636;28;45454;-87
2023/06/17 04:14:25;;;;;;;;;9.75;7.50;;;;;;;;4958436;28;45514;-86
2023/06/17 04:16:50;;;;;;;;;13.50;11.00;;;;;;;;4958983;28;45454;-86
2023/06/17 04:19:17;;;;;;;;;11.00;8.67;;;;;;;;4958571;28;45389;-87
2023/06/17 04:21:43;;;;;;;;;10.25;10.25;;;;;;;;4958241;28;45316;-87
2023/06/17 04:24:08;;;;;;;;;12.50;9.00;;;;;;;;4958373;28;45359;-86
2023/06/17 04:26:33;;;;;;;;;9.67;9.67;;;;;;;;4957638;28;45361;-86
2023/06/17 04:29:01;;;;;;;;;9.25;7.25;;;;;;;;4958594;28;45216;-86
2023/06/17 04:31:29;;;;;;;;;9.50;8.50;;;;;;;;4958382;28;46444;-86
2023/06/17 04:33:54;;;;;;;;;13.25;8.00;;;;;;;;4958347;28;45727;-86
2023/06/17 04:36:20;;;;;;;;;11.75;10.25;;;;;;;;4958272;28;45240;-87
2023/06/17 04:38:47;;;;;;;;;8.75;8.25;;;;;;;;4958402;28;45223;-87
2023/06/17 04:41:13;;;;;;;;;8.75;7.75;;;;;;;;4958159;28;46210;-86
2023/06/17 04:43:38;;;;;;;;;7.00;7.00;;;;;;;;4958302;28;45509;-86
2023/06/17 04:46:03;;;;;;;;;11.00;10.00;;;;;;;;4957145;28;45445;-86
2023/06/17 04:48:28;;;;;;;;;9.00;7.67;;;;;;;;4958563;28;45327;-86
2023/06/17 04:50:57;;;;;;;;;11.25;8.75;;;;;;;;4957770;28;47172;-86
2023/06/17 04:53:23;;;;;;;;;10.00;9.50;;;;;;;;4958191;28;45909;-87
2023/06/17 04:55:48;;;;;;;;;9.33;8.67;;;;;;;;4958056;28;45335;-87
2023/06/17 04:58:13;;;;;;;;;10.67;8.67;;;;;;;;4956091;28;45272;-86
2023/06/17 05:00:38;;;;;;;;;8.33;7.00;;;;;;;;4957994;28;46436;-86
2023/06/17 05:03:03;;;;;;;;;8.00;7.00;;;;;;;;4958048;28;45526;-86
2023/06/17 05:05:29;;;;;;;;;9.67;9.00;;;;;;;;4957736;28;45347;-87
2023/06/17 05:07:54;;;;;;;;;9.75;7.25;;;;;;;;4957944;28;45474;-87
2023/06/17 05:10:19;;;;;;;;;8.25;7.00;;;;;;;;4956586;28;47038;-87
2023/06/17 05:12:45;;;;;;;;;9.00;7.67;;;;;;;;4956464;28;45935;-86
2023/06/17 05:15:10;;;;;;;;;8.33;6.33;;;;;;;;4956559;28;45254;-87
2023/06/17 05:17:35;;;;;;;;;6.00;4.50;;;;;;;;4958009;28;45395;-88
2023/06/17 05:20:00;;;;;;;;;6.33;6.33;;;;;;;;4957271;28;46123;-88
2023/06/17 05:22:26;;;;;;;;;8.00;5.00;;;;;;;;4957713;28;45437;-88
2023/06/17 05:24:51;;;;;;;;;9.67;4.00;;;;;;;;4957598;28;45406;-88
2023/06/17 05:27:16;;;;;;;;;7.33;5.00;;;;;;;;4957758;28;45512;-88
2023/06/17 05:29:41;;;;;;;;;7.67;5.33;;;;;;;;4957559;28;46340;-88
2023/06/17 05:32:07;;;;;;;;;5.25;5.25;;;;;;;;4957561;28;45359;-88
2023/06/17 05:34:32;;;;;;;;;7.00;6.00;;;;;;;;4955954;28;45255;-88
2023/06/17 05:36:57;;;;;;;;;5.67;5.00;;;;;;;;4957430;28;45432;-88
2023/06/17 05:39:22;;;;;;;;;5.00;5.00;;;;;;;;4956058;28;47126;-88
2023/06/17 05:41:47;;;;;;;;;6.00;6.00;;;;;;;;4957712;28;45354;-88
2023/06/17 05:44:13;;;;;;;;;6.67;4.00;;;;;;;;4957490;28;45471;-88
2023/06/17 05:46:38;;;;;;;;;5.33;5.00;;;;;;;;4957502;28;45216;-88
2023/06/17 05:49:03;;;;;;;;;7.67;5.00;;;;;;;;4955585;28;47249;-88
2023/06/17 05:51:28;;;;;;;;;4.67;4.67;;;;;;;;4956052;28;45841;-88
2023/06/17 05:53:54;;;;;;;;;7.25;4.75;;;;;;;;4957668;28;45384;-88
2023/06/17 05:56:19;;;;;;;;;1.00;0.00;;;;;;;;4957252;28;45217;-88
2023/06/17 05:58:44;;;;;;;;;5.50;5.50;;;;;;;;4957112;28;45371;-88
2023/06/17 06:01:10;;;;;;;;;7.67;4.00;;;;;;;;4957150;28;45240;-88
2023/06/17 06:03:35;;;;;;;;;3.75;2.50;;;;;;;;4957048;28;45346;-88
2023/06/17 06:06:00;;;;;;;;;7.00;4.25;;;;;;;;4957217;28;45318;-88
2023/06/17 06:08:26;;;;;;;;;5.00;4.00;;;;;;;;4957074;28;46218;-88
2023/06/17 06:10:51;;;;;;;;;5.00;4.67;;;;;;;;4957063;28;45410;-88
2023/06/17 06:13:16;;;;;;;;;7.00;5.00;;;;;;;;4956871;28;45473;-88
2023/06/17 06:15:41;;;;;;;;;10.25;5.00;;;;;;;;4957014;28;45477;-88
2023/06/17 06:18:07;;;;;;;;;7.00;5.00;;;;;;;;4956747;28;46485;-88
2023/06/17 06:20:32;;;;;;;;;7.00;5.00;;;;;;;;4955405;28;45591;-88
2023/06/17 06:22:57;;;;;;;;;4.67;4.00;;;;;;;;4957208;28;45271;-88
2023/06/17 06:25:23;;;;;;;;;4.25;3.25;;;;;;;;4956991;28;45510;-88
2023/06/17 06:27:49;;;;;;;;;6.00;5.00;;;;;;;;4957287;28;45442;-88
2023/06/17 06:30:15;;;;;;;;;8.00;6.50;;;;;;;;4956761;28;45879;-88
2023/06/17 06:32:40;;;;;;;;;8.00;5.25;;;;;;;;4956619;28;45253;-88
2023/06/17 06:35:05;;;;;;;;;6.00;6.00;;;;;;;;4956869;28;45303;-88
2023/06/17 06:37:31;;;;;;;;;9.50;4.00;;;;;;;;4956430;28;45556;-88
2023/06/17 06:39:56;;;;;;;;;9.00;5.00;;;;;;;;4956590;28;45399;-88
2023/06/17 06:42:21;;;;;;;;;4.00;4.00;;;;;;;;4956868;28;45404;-88
2023/06/17 06:44:48;;;;;;;;;9.33;4.33;;;;;;;;4956651;28;45343;-88
2023/06/17 06:47:13;;;;;;;;;6.00;5.00;;;;;;;;4956007;28;45319;-88
2023/06/17 06:49:38;;;;;;;;;6.67;6.00;;;;;;;;4956569;28;45375;-88
2023/06/17 06:52:04;;;;;;;;;7.67;6.67;;;;;;;;4956638;28;45459;-88
2023/06/17 06:54:29;;;;;;;;;5.50;4.00;;;;;;;;4956354;28;45498;-88
2023/06/17 06:56:55;;;;;;;;;9.00;6.25;;;;;;;;4956555;28;47151;-88
2023/06/17 06:59:21;;;;;;;;;6.00;5.25;;;;;;;;4956439;28;45510;-88
2023/06/17 07:01:46;;;;;;;;;9.25;6.00;;;;;;;;4956249;28;45788;-88
2023/06/17 07:04:11;;;;;;;;;6.67;4.00;;;;;;;;4956502;28;45495;-88
2023/06/17 07:06:36;;;;;;;;;5.00;4.50;;;;;;;;4956367;28;45490;-88
2023/06/17 07:09:02;;;;;;;;;3.50;3.50;;;;;;;;4956793;28;45391;-88
2023/06/17 07:11:27;;;;;;;;;5.67;3.67;;;;;;;;4956761;28;45421;-88
2023/06/17 07:13:53;;;;;;;;;4.75;4.25;;;;;;;;4956100;28;45444;-88
2023/06/17 07:16:18;;;;;;;;;6.00;3.33;;;;;;;;4955771;28;46678;-87
2023/06/17 07:18:43;;;;;;;;;6.00;4.00;;;;;;;;4956188;28;45498;-87
2023/06/17 07:21:10;;;;;;;;;7.33;4.67;;;;;;;;4956381;28;45485;-88
2023/06/17 07:23:35;;;;;;;;;7.00;4.00;;;;;;;;4958488;28;45418;-87
2023/06/17 07:26:00;;;;;;;;;6.00;4.75;;;;;;;;4959474;28;46493;-87
2023/06/17 07:28:26;;;;;;;;;7.00;4.25;;;;;;;;4958281;28;45475;-88
2023/06/17 07:30:51;;;;;;;;;8.00;5.67;;;;;;;;4959480;28;45280;-88
2023/06/17 07:33:17;;;;;;;;;6.00;4.00;;;;;;;;4959337;28;45399;-88
2023/06/17 07:35:42;;;;;;;;;5.00;4.00;;;;;;;;4959463;28;46959;-88
2023/06/17 07:38:07;;;;;;;;;7.00;4.33;;;;;;;;4958123;28;45411;-88
2023/06/17 07:40:32;;;;;;;;;4.33;3.00;;;;;;;;4959567;28;45381;-87
2023/06/17 07:42:57;;;;;;;;;5.33;4.67;;;;;;;;4958543;28;45357;-88
2023/06/17 07:45:23;;;;;;;;;10.00;4.00;;;;;;;;4959158;28;46059;-87
2023/06/17 07:47:48;;;;;;;;;7.33;4.00;;;;;;;;4959354;28;45349;-88
2023/06/17 07:50:13;;;;;;;;;5.67;5.00;;;;;;;;4959431;28;45262;-88
2023/06/17 07:52:39;;;;;;;;;5.00;4.00;;;;;;;;4958039;28;45618;-88
2023/06/17 07:55:04;;;;;;;;;6.00;5.33;;;;;;;;4959058;28;45224;-88
2023/06/17 07:57:30;;;;;;;;;5.75;3.25;;;;;;;;4957637;28;45292;-88
2023/06/17 07:59:55;;;;;;;;;6.50;5.00;;;;;;;;4958846;28;45883;-88
2023/06/17 08:02:21;;;;;;;;;7.50;5.25;;;;;;;;4959216;28;45667;-88
2023/06/17 08:04:47;;;;;;;;;4.25;4.25;;;;;;;;4957466;28;45930;-88
2023/06/17 08:07:13;;;;;;;;;6.25;3.75;;;;;;;;4959047;28;45483;-88
2023/06/17 08:09:38;;;;;;;;;5.50;4.00;;;;;;;;4959100;28;45240;-88
2023/06/17 08:12:03;;;;;;;;;5.75;4.50;;;;;;;;4958925;28;45606;-88
2023/06/17 08:14:29;;;;;;;;;5.50;4.25;;;;;;;;4958401;28;46110;-88
2023/06/17 08:16:55;;;;;;;;;4.25;4.25;;;;;;;;4958836;28;45422;-88
2023/06/17 08:19:21;;;;;;;;;5.50;4.00;;;;;;;;4958925;28;45360;-88
2023/06/17 08:21:47;;;;;;;;;6.00;5.50;;;;;;;;4958866;28;45462;-88
2023/06/17 08:24:22;;;;;;;;;6.00;4.50;;;;;;;;4958543;28;45577;-88
2023/06/17 08:26:48;;;;;;;;;4.00;4.00;;;;;;;;4958554;28;45303;-88
2023/06/17 08:29:13;;;;;;;;;6.25;5.25;;;;;;;;4958626;28;45241;-88
2023/06/17 08:31:40;;;;;;;;;11.00;4.25;;;;;;;;4958899;28;45547;-88
2023/06/17 08:34:06;;;;;;;;;5.75;4.00;;;;;;;;4957715;28;45384;-88
2023/06/17 08:36:32;;;;;;;;;5.25;5.25;;;;;;;;4958733;28;45361;-88
2023/06/17 08:38:58;;;;;;;;;3.75;3.50;;;;;;;;4959030;28;45315;-88
2023/06/17 08:41:23;;;;;;;;;3.50;3.25;;;;;;;;4958238;28;45563;-88
2023/06/17 08:43:51;;;;;;;;;5.00;3.00;;;;;;;;4958331;28;46377;-88
2023/06/17 08:46:16;;;;;;;;;4.50;4.25;;;;;;;;4958512;28;45728;-87
2023/06/17 08:48:43;;;;;;;;;4.00;4.00;;;;;;;;4958423;28;45375;-88
2023/06/17 08:51:09;;;;;;;;;5.00;4.00;;;;;;;;4958533;28;45351;-88
2023/06/17 08:53:34;;;;;;;;;5.75;3.75;;;;;;;;4958257;28;46285;-87
2023/06/17 08:56:00;;;;;;;;;6.75;3.50;;;;;;;;4957499;28;45841;-88
2023/06/17 08:58:25;;;;;;;;;5.33;4.00;;;;;;;;4958394;28;45353;-89
2023/06/17 09:00:52;;;;;;;;;5.50;4.00;;;;;;;;4957953;28;45615;-88
2023/06/17 09:03:19;;;;;;;;;5.00;4.25;;;;;;;;4957943;28;47407;-88
2023/06/17 09:05:44;;;;;;;;;6.50;4.50;;;;;;;;4958077;28;45997;-88
2023/06/17 09:08:10;;;;;;;;;6.00;3.33;;;;;;;;4958324;28;45469;-88
2023/06/17 09:10:42;;;;;;;;;4.50;4.00;;;;;;;;4956401;28;45357;-88
2023/06/17 09:13:08;;;;;;;;;2.00;1.00;;;;;;;;4957778;28;45702;-87
2023/06/17 09:15:38;;;;;;;;;6.00;3.75;;;;;;;;4956782;28;45869;-88
2023/06/17 09:18:04;;;;;;;;;6.50;4.00;;;;;;;;4957984;28;45348;-88
2023/06/17 09:20:31;;;;;;;;;8.25;5.25;;;;;;;;4957754;28;45449;-88
2023/06/17 09:22:57;;;;;;;;;7.00;5.50;;;;;;;;4957865;28;46362;-88
2023/06/17 09:25:23;;;;;;;;;8.00;3.00;;;;;;;;4957597;28;45399;-88
2023/06/17 09:27:52;;;;;;;;;8.25;4.00;;;;;;;;4957008;28;45376;-87
2023/06/17 09:30:17;;;;;;;;;7.75;6.25;;;;;;;;4958425;28;45343;-88
2023/06/17 09:32:44;;;;;;;;;7.00;6.75;;;;;;;;4957601;28;46338;-88
2023/06/17 09:35:14;;;;;;;;;8.25;4.75;;;;;;;;4957763;28;45231;-88
2023/06/17 09:37:39;;;;;;;;;5.50;4.00;;;;;;;;4957738;28;45334;-88
2023/06/17 09:40:08;;;;;;;;;8.75;5.00;;;;;;;;4957401;28;45457;-87
2023/06/17 09:42:33;;;;;;;;;8.50;5.00;;;;;;;;4956039;28;47630;-88
2023/06/17 09:45:03;;;;;;;;;8.75;4.25;;;;;;;;4957032;28;45433;-88
2023/06/17 09:47:32;;;;;;;;;7.00;4.75;;;;;;;;4957639;28;45435;-88
2023/06/17 09:50:01;;;;;;;;;7.00;6.00;;;;;;;;4957434;28;45487;-88
2023/06/17 09:52:28;;;;;;;;;8.00;5.25;;;;;;;;4957417;28;46207;-88
2023/06/17 09:54:54;;;;;;;;;8.00;5.00;;;;;;;;4956712;28;45331;-87
2023/06/17 09:57:20;;;;;;;;;9.00;6.00;;;;;;;;4957536;28;45378;-89
2023/06/17 09:59:46;;;;;;;;;7.00;6.50;;;;;;;;4957235;28;45343;-88
2023/06/17 10:02:12;;;;;;;;;9.25;6.50;;;;;;;;4957123;28;45448;-87
2023/06/17 10:04:37;;;;;;;;;9.00;5.67;;;;;;;;4957199;28;45359;-88
2023/06/17 10:07:03;;;;;;;;;6.67;6.00;;;;;;;;4955950;28;45338;-88
2023/06/17 10:09:29;;;;;;;;;5.50;5.50;;;;;;;;4956822;28;45579;-88
2023/06/17 10:11:55;;;;;;;;;6.75;5.50;;;;;;;;4957038;28;45897;-88
2023/06/17 10:14:21;;;;;;;;;8.00;6.00;;;;;;;;4955903;28;45819;-88
2023/06/17 10:16:48;;;;;;;;;4.00;4.00;;;;;;;;4957401;28;45482;-88
2023/06/17 10:19:16;;;;;;;;;8.50;5.25;;;;;;;;4957513;28;45473;-88
2023/06/17 10:21:44;;;;;;;;;5.50;5.00;;;;;;;;4959799;28;46253;-88
2023/06/17 10:24:10;;;;;;;;;9.50;6.00;;;;;;;;4957030;28;45724;-86
2023/06/17 10:26:35;;;;;;;;;6.75;3.75;;;;;;;;4957064;28;45260;-86
2023/06/17 10:29:02;;;;;;;;;7.33;6.33;;;;;;;;4957174;28;45383;-86
2023/06/17 10:31:28;;;;;;;;;7.75;7.00;;;;;;;;4956673;28;46659;-86
2023/06/17 10:33:54;;;;;;;;;7.75;6.25;;;;;;;;4956691;28;45896;-86
2023/06/17 10:36:21;;;;;;;;;10.00;7.25;;;;;;;;4957238;28;45310;-86
2023/06/17 10:38:58;;;;;;;;;9.00;8.00;;;;;;;;4956766;28;45473;-87
2023/06/17 10:41:52;;;;;;;;;13.50;6.75;;;;;;;;4956553;28;46451;-87
2023/06/17 10:44:24;;;;;;;;;12.25;7.50;;;;;;;;4947596;28;45545;-86
2023/06/17 10:46:49;;;;;;;;;7.50;6.00;;;;;;;;4956942;28;45446;-89
2023/06/17 10:49:15;;;;;;;;;6.75;4.75;;;;;;;;4956609;28;45381;-87
2023/06/17 10:51:50;;;;;;;;;9.75;6.50;;;;;;;;4956614;28;46880;-87
2023/06/17 10:54:15;;;;;;;;;10.25;7.50;;;;;;;;4955947;28;45363;-87
2023/06/17 10:56:49;;;;;;;;;8.75;5.25;;;;;;;;4956213;28;45376;-87
2023/06/17 10:59:14;;;;;;;;;6.25;6.00;;;;;;;;4960099;28;45534;-87
2023/06/17 11:01:41;;;;;;;;;12.75;8.50;;;;;;;;4959800;28;46907;-88
2023/06/17 11:04:07;;;;;;;;;7.75;5.00;;;;;;;;4959877;28;45970;-87
2023/06/17 11:06:32;;;;;;;;;7.00;6.00;;;;;;;;4959685;28;45528;-87
2023/06/17 11:08:58;;;;;;;;;8.67;5.00;;;;;;;;4960025;28;45525;-87
2023/06/17 11:11:23;;;;;;;;;6.67;5.00;;;;;;;;4960096;28;46156;-87
2023/06/17 11:13:50;;;;;;;;;6.67;4.67;;;;;;;;4958466;28;45844;-87
2023/06/17 11:16:15;;;;;;;;;7.25;6.75;;;;;;;;4960043;28;45413;-87
2023/06/17 11:18:41;;;;;;;;;7.33;7.00;;;;;;;;4959974;28;45330;-87
2023/06/17 11:21:07;;;;;;;;;8.00;6.50;;;;;;;;4959118;28;47081;-87
2023/06/17 11:23:33;;;;;;;;;11.50;8.50;;;;;;;;4959740;28;45402;-87
2023/06/17 11:25:59;;;;;;;;;8.25;4.00;;;;;;;;4959531;28;45393;-87
2023/06/17 11:28:25;;;;;;;;;7.75;4.50;;;;;;;;4958386;28;45319;-87
2023/06/17 11:30:50;;;;;;;;;12.00;7.67;;;;;;;;4959523;28;46682;-85
2023/06/17 11:33:18;;;;;;;;;7.67;6.33;;;;;;;;4959442;28;45418;-87
2023/06/17 11:35:43;;;;;;;;;8.75;6.25;;;;;;;;4959198;28;45434;-88
2023/06/17 11:38:09;;;;;;;;;6.75;6.75;;;;;;;;4959533;28;45260;-87
2023/06/17 11:40:34;;;;;;;;;7.50;5.50;;;;;;;;4959226;28;46236;-87
2023/06/17 11:43:00;;;;;;;;;4.67;4.67;;;;;;;;4959355;28;45408;-87
2023/06/17 11:45:27;;;;;;;;;6.00;5.00;;;;;;;;4959421;28;45442;-87
2023/06/17 11:47:52;;;;;;;;;7.50;5.00;;;;;;;;4959354;28;45502;-88
2023/06/17 11:50:18;;;;;;;;;8.00;4.75;;;;;;;;4957556;28;47272;-88
2023/06/17 11:52:52;;;;;;;;;8.75;5.75;;;;;;;;4957909;28;45424;-86
2023/06/17 11:55:17;;;;;;;;;7.75;5.50;;;;;;;;4959125;28;45366;-88
2023/06/17 11:57:43;;;;;;;;;12.50;6.00;;;;;;;;4959119;28;45454;-88
2023/06/17 12:00:10;;;;;;;;;7.75;6.75;;;;;;;;4958988;28;45300;-88
2023/06/17 12:02:35;;;;;;;;;6.25;5.00;;;;;;;;4959096;28;45788;-87
2023/06/17 12:05:02;;;;;;;;;10.00;7.00;;;;;;;;4957626;28;45370;-88
2023/06/17 12:07:28;;;;;;;;;5.00;4.75;;;;;;;;4958991;28;45463;-87
2023/06/17 12:09:53;;;;;;;;;5.00;4.00;;;;;;;;4958778;28;47016;-88
2023/06/17 12:12:32;;;;;;;;;6.00;4.00;;;;;;;;4958961;28;45437;-87
2023/06/17 12:15:02;;;;;;;;;5.00;4.00;;;;;;;;4957599;28;45533;-87
2023/06/17 12:17:28;;;;;;;;;8.25;4.50;;;;;;;;4958960;28;45422;-87
2023/06/17 12:20:00;;;;;;;;;7.67;5.33;;;;;;;;4958147;28;46409;-87
2023/06/17 12:22:25;;;;;;;;;5.00;4.75;;;;;;;;4957341;28;45944;-87
2023/06/17 12:24:51;;;;;;;;;6.25;5.00;;;;;;;;4958817;28;45345;-88
2023/06/17 12:27:16;;;;;;;;;13.33;7.00;;;;;;;;4958677;28;45649;-88
2023/06/17 12:29:44;;;;;;;;;7.50;7.50;;;;;;;;4958519;28;45339;-88
2023/06/17 12:32:09;;;;;;;;;5.00;5.00;;;;;;;;4958472;28;45293;-87
2023/06/17 12:34:34;;;;;;;;;5.75;4.75;;;;;;;;4958232;28;45232;-88
2023/06/17 12:37:00;;;;;;;;;6.33;4.67;;;;;;;;4957386;28;45229;-87
2023/06/17 12:39:26;;;;;;;;;5.00;4.50;;;;;;;;4958338;28;45383;-87
2023/06/17 12:41:51;;;;;;;;;7.00;5.00;;;;;;;;4958545;28;45416;-87
2023/06/17 12:44:17;;;;;;;;;6.33;6.33;;;;;;;;4958589;28;45334;-87
2023/06/17 12:46:44;;;;;;;;;5.50;4.00;;;;;;;;4958501;28;45300;-87
2023/06/17 12:49:10;;;;;;;;;5.25;5.00;;;;;;;;4957853;28;47343;-88
2023/06/17 12:51:35;;;;;;;;;8.00;5.50;;;;;;;;4957054;28;45321;-88
2023/06/17 12:54:01;;;;;;;;;7.00;4.67;;;;;;;;4958528;28;45330;-88
2023/06/17 12:56:32;;;;;;;;;6.67;5.33;;;;;;;;4957519;28;45325;-87
2023/06/17 12:58:57;;;;;;;;;6.75;5.25;;;;;;;;4958314;28;46257;-88
2023/06/17 13:01:22;;;;;;;;;7.00;5.00;;;;;;;;4956806;28;45486;-88
2023/06/17 13:03:48;;;;;;;;;9.67;5.67;;;;;;;;4957988;28;45289;-88
2023/06/17 13:06:13;;;;;;;;;8.50;6.00;;;;;;;;4958339;28;45364;-87
2023/06/17 13:08:39;;;;;;;;;8.33;6.33;;;;;;;;4958082;28;46543;-87
2023/06/17 13:11:05;;;;;;;;;8.75;7.50;;;;;;;;4957983;28;45541;-87
2023/06/17 13:13:31;;;;;;;;;7.00;7.00;;;;;;;;4957966;28;45485;-87
2023/06/17 13:15:56;;;;;;;;;8.75;7.00;;;;;;;;4958074;28;45417;-88
2023/06/17 13:18:22;;;;;;;;;6.75;5.50;;;;;;;;4956226;28;46101;-87
2023/06/17 13:21:18;;;;;;;;;8.67;7.00;;;;;;;;4956985;28;45494;-88
2023/06/17 13:23:48;;;;;;;;;7.50;5.75;;;;;;;;4957360;28;45522;-87
2023/06/17 13:29:04;;;;;;;;;8.00;5.00;;;;;;;;4957651;28;46318;-88
2023/06/17 13:31:31;;;;;;;;;7.00;6.50;;;;;;;;4957520;28;45240;-88
2023/06/17 13:33:57;;;;;;;;;9.75;8.50;;;;;;;;4958146;28;45449;-88
2023/06/17 13:36:25;;;;;;;;;6.50;6.25;;;;;;;;4958096;28;45437;-88
2023/06/17 13:38:50;;;;;;;;;7.25;5.75;;;;;;;;4958131;28;47046;-87
2023/06/17 13:41:30;;;;;;;;;8.25;6.25;;;;;;;;4958119;28;45312;-88
2023/06/17 13:43:56;;;;;;;;;8.75;4.50;;;;;;;;4957704;28;45280;-88
2023/06/17 13:46:21;;;;;;;;;7.00;5.75;;;;;;;;4957855;28;45413;-88
2023/06/17 13:48:47;;;;;;;;;9.00;6.00;;;;;;;;4957430;28;46404;-87
2023/06/17 13:51:12;;;;;;;;;6.67;6.67;;;;;;;;4957653;28;45414;-88
2023/06/17 13:53:37;;;;;;;;;9.00;5.00;;;;;;;;4957559;28;45307;-88
2023/06/17 13:56:02;;;;;;;;;7.33;4.33;;;;;;;;4957377;28;45425;-87
2023/06/17 13:58:28;;;;;;;;;7.00;6.25;;;;;;;;4957414;28;45432;-88
2023/06/17 14:00:53;;;;;;;;;7.67;4.67;;;;;;;;4955697;28;45817;-88
2023/06/17 14:03:18;;;;;;;;;7.25;5.75;;;;;;;;4957163;28;45441;-88
2023/06/17 14:05:43;;;;;;;;;8.33;4.67;;;;;;;;4956137;28;45454;-88
2023/06/17 14:08:09;;;;;;;;;7.50;5.00;;;;;;;;4957090;28;45311;-88
2023/06/17 14:10:34;;;;;;;;;6.75;4.00;;;;;;;;4957190;28;45415;-88
2023/06/17 14:13:00;;;;;;;;;5.00;4.00;;;;;;;;4957204;28;45331;-88
2023/06/17 14:15:25;;;;;;;;;5.75;5.00;;;;;;;;4956589;28;45609;-88
2023/06/17 14:17:50;;;;;;;;;9.00;5.67;;;;;;;;4956758;28;46179;-88
2023/06/17 14:20:16;;;;;;;;;6.75;4.50;;;;;;;;4955572;28;45305;-88
2023/06/17 14:22:58;;;;;;;;;5.50;4.75;;;;;;;;4955436;28;45326;-87
2023/06/17 14:25:26;;;;;;;;;9.50;7.75;;;;;;;;4957303;28;45482;-87
2023/06/17 14:27:54;;;;;;;;;8.75;6.00;;;;;;;;4956966;28;46412;-88
2023/06/17 14:30:45;;;;;;;;;7.00;5.75;;;;;;;;4955699;28;45758;-88
2023/06/17 14:33:13;;;;;;;;;9.50;5.25;;;;;;;;4951917;28;45449;-87
2023/06/17 14:35:53;;;;;;;;;6.50;6.00;;;;;;;;4957198;28;45553;-88